Time;durP1;ratioP1;P1;durP2;ratioP2;P2;SDS_P1;SDS_P2;PMS_P1;PMS_P2;Temp;Humidity;BMP_temperature;BMP_pressure;BME280_temperature;BME280_humidity;BME280_pressure;Samples;Min_cycle;Max_cycle;Signal;HPM_P1;HPM_P2
2022/06/07 00:00:54;;;;;;;14.90;8.25;;;12.20;99.90;;;;;;5075090;28;20051;-69
2022/06/07 00:03:21;;;;;;;16.48;9.10;;;12.20;99.90;;;;;;5058427;28;20045;-69
2022/06/07 00:05:48;;;;;;;14.98;8.50;;;12.30;99.90;;;;;;5074996;28;20059;-69
2022/06/07 00:08:16;;;;;;;15.02;9.35;;;12.20;99.90;;;;;;5058147;28;20123;-69
2022/06/07 00:10:43;;;;;;;18.85;9.30;;;12.20;99.90;;;;;;5074845;28;20052;-69
2022/06/07 00:13:10;;;;;;;17.92;9.52;;;12.20;99.90;;;;;;5076333;28;20063;-69
2022/06/07 00:15:37;;;;;;;19.45;9.35;;;12.30;99.90;;;;;;5074775;28;20119;-69
2022/06/07 00:18:03;;;;;;;15.85;9.35;;;12.20;99.90;;;;;;5074700;28;20048;-69
2022/06/07 00:20:29;;;;;;;14.02;9.82;;;12.20;99.90;;;;;;5074709;28;20045;-69
2022/06/07 00:22:55;;;;;;;18.00;10.98;;;12.20;99.90;;;;;;5074928;28;20047;-69
2022/06/07 00:25:22;;;;;;;15.63;10.48;;;12.30;99.90;;;;;;5074846;28;20044;-69
2022/06/07 00:27:48;;;;;;;19.00;11.07;;;12.20;99.90;;;;;;5074684;28;20048;-69
2022/06/07 00:30:14;;;;;;;17.15;11.07;;;12.20;99.90;;;;;;5074545;28;20040;-69
2022/06/07 00:32:42;;;;;;;21.27;12.10;;;12.20;99.90;;;;;;5057858;28;20051;-69
2022/06/07 00:35:08;;;;;;;16.88;10.82;;;12.30;99.90;;;;;;5074476;28;20123;-69
2022/06/07 00:37:34;;;;;;;15.73;12.20;;;12.30;99.90;;;;;;5074607;28;20519;-69
2022/06/07 00:39:59;;;;;;;18.92;13.10;;;12.30;99.90;;;;;;5074410;28;20032;-70
2022/06/07 00:42:25;;;;;;;23.40;13.80;;;12.30;99.90;;;;;;5074585;28;20132;-69
2022/06/07 00:44:51;;;;;;;21.08;13.32;;;12.30;99.90;;;;;;5074322;28;20072;-70
2022/06/07 00:47:23;;;;;;;16.73;12.65;;;12.30;99.90;;;;;;5074419;28;20040;-69
2022/06/07 00:50:16;;;;;;;17.40;13.75;;;12.30;99.90;;;;;;5074257;28;20045;-69
2022/06/07 00:52:41;;;;;;;23.98;14.15;;;12.40;99.90;;;;;;5074447;28;20044;-69
2022/06/07 00:55:08;;;;;;;21.23;14.20;;;12.30;99.90;;;;;;5074335;28;20051;-69
2022/06/07 00:57:34;;;;;;;21.88;13.82;;;12.40;99.90;;;;;;5073964;28;20036;-70
2022/06/07 01:00:00;;;;;;;18.45;13.23;;;12.30;99.90;;;;;;5073974;28;20040;-69
2022/06/07 01:02:26;;;;;;;21.17;14.30;;;12.40;99.90;;;;;;5057167;28;20043;-69
2022/06/07 01:04:52;;;;;;;15.70;12.77;;;12.40;99.90;;;;;;5057188;28;20466;-69
2022/06/07 01:12:48;;;;;;;19.40;13.75;;;12.40;99.90;;;;;;5073777;28;20416;-69
2022/06/07 01:15:14;;;;;;;21.58;13.40;;;12.40;99.90;;;;;;5073674;28;20504;-69
2022/06/07 01:17:39;;;;;;;17.05;12.80;;;12.40;99.90;;;;;;5073594;28;20047;-69
2022/06/07 01:20:06;;;;;;;20.23;12.80;;;12.40;99.90;;;;;;5075104;28;20040;-69
2022/06/07 01:22:31;;;;;;;19.75;13.50;;;12.40;99.90;;;;;;5075080;28;20040;-69
2022/06/07 01:24:57;;;;;;;16.77;13.52;;;12.40;99.90;;;;;;5073522;28;20045;-70
2022/06/07 01:27:23;;;;;;;19.48;13.70;;;12.40;99.90;;;;;;5073313;28;20044;-70
2022/06/07 01:29:48;;;;;;;20.73;13.55;;;12.50;99.90;;;;;;5073437;28;20047;-70
2022/06/07 01:32:14;;;;;;;17.95;13.63;;;12.50;99.90;;;;;;5073621;28;20081;-70
2022/06/07 01:34:42;;;;;;;19.50;13.75;;;12.50;99.90;;;;;;5073330;28;20125;-70
2022/06/07 01:37:14;;;;;;;14.48;12.85;;;12.50;99.90;;;;;;5056709;28;20170;-70
2022/06/07 01:42:24;;;;;;;17.48;13.10;;;12.50;99.90;;;;;;5074465;28;20131;-69
2022/06/07 01:44:51;;;;;;;15.05;11.82;;;12.60;99.90;;;;;;5073125;28;20072;-69
2022/06/07 01:47:23;;;;;;;16.13;12.57;;;12.60;99.90;;;;;;5074245;28;20133;-69
2022/06/07 01:49:49;;;;;;;15.73;11.80;;;12.60;99.90;;;;;;5073380;28;20040;-69
2022/06/07 01:52:17;;;;;;;18.52;12.07;;;12.60;99.90;;;;;;5073014;28;20037;-69
2022/06/07 01:54:43;;;;;;;16.17;12.02;;;12.60;99.90;;;;;;5074172;28;20496;-69
2022/06/07 01:57:09;;;;;;;15.10;11.30;;;12.60;99.90;;;;;;5074079;28;20040;-70
2022/06/07 01:59:35;;;;;;;15.57;11.32;;;12.60;99.90;;;;;;5072759;28;20044;-70
2022/06/07 02:02:02;;;;;;;14.15;10.77;;;12.70;99.90;;;;;;5073036;28;20048;-70
2022/06/07 02:04:27;;;;;;;17.65;12.10;;;12.60;99.90;;;;;;5056391;28;20036;-70
2022/06/07 02:06:53;;;;;;;17.42;13.00;;;12.70;99.90;;;;;;5072771;28;20550;-70
2022/06/07 02:09:19;;;;;;;17.30;13.00;;;12.70;99.90;;;;;;5072715;28;20090;-70
2022/06/07 02:11:45;;;;;;;18.58;12.75;;;12.70;99.90;;;;;;5072598;28;20086;-70
2022/06/07 02:14:12;;;;;;;18.30;13.35;;;12.70;99.90;;;;;;5072181;28;20036;-70
2022/06/07 02:16:38;;;;;;;18.98;13.18;;;12.70;99.90;;;;;;5073756;28;20040;-69
2022/06/07 02:19:04;;;;;;;20.00;13.50;;;12.70;99.90;;;;;;5072440;28;20048;-69
2022/06/07 02:21:31;;;;;;;15.90;13.15;;;12.70;99.90;;;;;;5072679;28;20041;-70
2022/06/07 02:23:56;;;;;;;16.25;12.88;;;12.70;99.90;;;;;;5072362;28;20432;-70
2022/06/07 02:26:25;;;;;;;16.40;12.35;;;12.70;99.90;;;;;;5072587;28;20036;-69
2022/06/07 02:29:00;;;;;;;17.83;12.15;;;12.70;99.90;;;;;;5072826;28;20224;-70
2022/06/07 02:31:28;;;;;;;17.08;12.27;;;12.70;99.90;;;;;;5072312;28;20040;-70
2022/06/07 02:33:57;;;;;;;19.95;12.32;;;12.70;99.90;;;;;;5072219;28;20119;-70
2022/06/07 02:36:23;;;;;;;18.02;11.98;;;12.70;99.90;;;;;;5072195;28;20037;-70
2022/06/07 02:38:49;;;;;;;18.70;12.68;;;12.70;99.90;;;;;;5055399;28;20044;-70
2022/06/07 02:41:20;;;;;;;19.55;13.10;;;12.70;99.90;;;;;;5072131;28;20055;-70
2022/06/07 02:43:46;;;;;;;16.70;12.90;;;12.80;99.90;;;;;;5072138;28;20044;-69
2022/06/07 02:46:12;;;;;;;16.33;13.32;;;12.70;99.90;;;;;;5072050;28;20400;-69
2022/06/07 02:48:37;;;;;;;18.38;13.35;;;12.70;99.90;;;;;;5073392;28;20047;-69
2022/06/07 02:51:04;;;;;;;19.10;13.25;;;12.70;99.90;;;;;;5072325;28;20055;-69
2022/06/07 02:53:30;;;;;;;16.88;13.13;;;12.70;99.90;;;;;;5072275;28;20062;-70
2022/06/07 02:55:56;;;;;;;20.00;13.80;;;12.70;99.90;;;;;;5071983;28;20475;-70
2022/06/07 02:58:25;;;;;;;18.73;13.02;;;12.70;99.90;;;;;;5071762;28;20435;-69
2022/06/07 03:00:51;;;;;;;17.67;13.45;;;12.80;99.90;;;;;;5071853;28;20068;-69
2022/06/07 03:03:17;;;;;;;16.55;13.02;;;12.70;99.90;;;;;;5071815;28;20071;-69
2022/06/07 03:05:43;;;;;;;21.40;14.10;;;12.70;99.90;;;;;;5073042;28;20449;-69
2022/06/07 03:08:09;;;;;;;20.42;13.77;;;12.70;99.90;;;;;;5071754;28;20051;-69
2022/06/07 03:10:35;;;;;;;17.15;12.70;;;12.70;99.90;;;;;;5072090;28;20070;-69
2022/06/07 03:13:00;;;;;;;16.20;13.25;;;12.70;99.90;;;;;;5072316;28;20648;-69
2022/06/07 03:15:26;;;;;;;18.27;13.05;;;12.70;99.90;;;;;;5071730;28;20455;-69
2022/06/07 03:17:52;;;;;;;19.83;14.05;;;12.70;99.90;;;;;;5071918;28;20043;-69
2022/06/07 03:20:18;;;;;;;18.73;13.65;;;12.70;99.90;;;;;;5071954;28;20456;-69
2022/06/07 03:22:43;;;;;;;17.60;13.00;;;12.70;99.90;;;;;;5071683;28;20504;-69
2022/06/07 03:25:10;;;;;;;18.02;13.90;;;12.70;99.90;;;;;;5074315;28;20041;-69
2022/06/07 03:27:38;;;;;;;18.52;13.25;;;12.70;99.90;;;;;;5075621;28;20048;-69
2022/06/07 03:30:06;;;;;;;19.52;13.38;;;12.70;99.90;;;;;;5075706;28;20488;-69
2022/06/07 03:32:33;;;;;;;16.67;13.13;;;12.70;99.90;;;;;;5075659;28;20036;-69
2022/06/07 03:34:58;;;;;;;18.48;12.38;;;12.70;99.90;;;;;;5075619;28;20115;-69
2022/06/07 03:37:24;;;;;;;18.10;12.93;;;12.60;99.90;;;;;;5075506;28;20116;-69
2022/06/07 03:39:50;;;;;;;15.68;12.32;;;12.70;99.90;;;;;;5058837;28;20123;-69
2022/06/07 03:42:17;;;;;;;16.35;11.85;;;12.70;99.90;;;;;;5059077;28;20117;-69
2022/06/07 03:44:46;;;;;;;18.38;12.50;;;12.70;99.90;;;;;;5075654;28;20436;-69
2022/06/07 03:47:11;;;;;;;17.38;12.88;;;12.70;99.90;;;;;;5075259;28;20049;-69
2022/06/07 03:49:37;;;;;;;18.08;12.70;;;12.70;99.90;;;;;;5075246;28;20059;-69
2022/06/07 03:52:03;;;;;;;18.40;13.05;;;12.70;99.90;;;;;;5075267;28;20068;-70
2022/06/07 03:54:28;;;;;;;15.43;13.15;;;12.70;99.90;;;;;;5075512;28;20072;-69
2022/06/07 03:56:54;;;;;;;18.98;13.48;;;12.70;99.90;;;;;;5075163;28;20090;-69
2022/06/07 03:59:19;;;;;;;17.20;13.07;;;12.70;99.90;;;;;;5075161;28;20044;-69
2022/06/07 04:01:45;;;;;;;18.50;12.98;;;12.70;99.90;;;;;;5075311;28;20136;-69
2022/06/07 04:04:11;;;;;;;21.77;14.20;;;12.70;99.90;;;;;;5058327;28;20420;-69
2022/06/07 04:08:10;;;;;;;18.35;13.50;;;12.70;99.90;;;;;;5074985;28;20047;-69
2022/06/07 04:09:29;;;;;;;20.35;13.82;;;12.70;99.90;;;;;;5074867;28;20052;-69
2022/06/07 04:11:55;;;;;;;17.48;12.98;;;12.70;99.90;;;;;;5074870;28;20165;-69
2022/06/07 04:14:20;;;;;;;16.02;12.82;;;12.80;99.90;;;;;;5074813;28;20048;-69
2022/06/07 04:16:46;;;;;;;18.45;13.48;;;12.70;99.90;;;;;;5075254;28;20036;-69
2022/06/07 04:19:12;;;;;;;18.80;13.57;;;12.70;99.90;;;;;;5074710;28;20084;-69
2022/06/07 04:21:37;;;;;;;18.33;12.93;;;12.70;99.90;;;;;;5076253;28;20036;-69
2022/06/07 04:24:03;;;;;;;18.58;14.73;;;12.70;99.90;;;;;;5074677;28;20450;-69
2022/06/07 04:26:30;;;;;;;18.48;13.32;;;12.80;99.90;;;;;;5074908;28;20145;-69
2022/06/07 04:28:58;;;;;;;17.70;12.85;;;12.80;99.90;;;;;;5074425;28;20508;-69
2022/06/07 04:31:25;;;;;;;18.48;13.65;;;12.80;99.90;;;;;;5074829;28;20068;-69
2022/06/07 04:33:55;;;;;;;20.17;13.73;;;12.80;99.90;;;;;;5074491;28;20036;-69
2022/06/07 04:36:23;;;;;;;17.08;13.25;;;12.80;99.90;;;;;;5057016;28;20039;-69
2022/06/07 04:38:51;;;;;;;16.83;13.32;;;12.80;99.90;;;;;;5074339;28;20570;-69
2022/06/07 04:41:19;;;;;;;19.85;13.25;;;12.80;99.90;;;;;;5074380;28;20047;-69
2022/06/07 04:43:49;;;;;;;15.77;12.55;;;12.80;99.90;;;;;;5074320;28;20404;-69
2022/06/07 04:46:16;;;;;;;18.00;12.40;;;12.80;99.90;;;;;;5074283;28;20049;-69
2022/06/07 04:48:43;;;;;;;16.08;12.52;;;12.80;99.90;;;;;;5074082;28;20060;-69
2022/06/07 04:51:15;;;;;;;17.25;12.85;;;12.80;99.90;;;;;;5074193;28;20068;-69
2022/06/07 04:53:41;;;;;;;17.70;13.68;;;12.80;99.90;;;;;;5074097;28;20463;-69
2022/06/07 04:56:19;;;;;;;18.00;13.80;;;12.80;99.90;;;;;;5074073;28;20029;-68
2022/06/07 04:58:44;;;;;;;17.98;13.77;;;12.80;99.90;;;;;;5073956;28;20451;-68
2022/06/07 05:01:19;;;;;;;19.77;14.40;;;12.80;99.90;;;;;;5073996;28;20040;-69
2022/06/07 05:03:45;;;;;;;18.75;13.57;;;12.80;99.90;;;;;;5074225;28;20140;-69
2022/06/07 05:06:25;;;;;;;17.90;14.25;;;12.80;99.90;;;;;;5073891;28;20497;-69
2022/06/07 05:08:54;;;;;;;18.20;14.23;;;12.80;99.90;;;;;;5075003;28;20234;-69
2022/06/07 05:11:20;;;;;;;22.08;14.82;;;12.80;99.90;;;;;;5073804;28;20377;-69
2022/06/07 05:13:46;;;;;;;20.10;14.05;;;12.80;99.90;;;;;;5075037;28;20089;-69
2022/06/07 05:16:12;;;;;;;19.42;13.27;;;12.80;99.90;;;;;;5073733;28;20037;-69
2022/06/07 05:18:38;;;;;;;20.63;13.88;;;12.80;99.90;;;;;;5073582;28;20453;-69
2022/06/07 05:21:05;;;;;;;20.40;14.35;;;12.80;99.90;;;;;;5073909;28;20086;-69
2022/06/07 05:23:31;;;;;;;20.17;15.02;;;12.80;99.90;;;;;;5073586;28;20049;-69
2022/06/07 05:26:04;;;;;;;15.02;12.93;;;12.80;99.90;;;;;;5073517;28;20048;-69
2022/06/07 05:28:29;;;;;;;20.63;14.35;;;12.80;99.90;;;;;;5056715;28;20083;-69
2022/06/07 05:30:55;;;;;;;18.77;14.63;;;12.80;99.90;;;;;;5073443;28;20072;-69
2022/06/07 05:33:21;;;;;;;17.90;13.27;;;12.80;99.90;;;;;;5073445;28;20127;-69
2022/06/07 05:35:46;;;;;;;21.30;15.13;;;12.80;99.90;;;;;;5073318;28;20072;-69
2022/06/07 05:38:12;;;;;;;22.92;15.50;;;12.80;99.90;;;;;;5073186;28;20063;-69
2022/06/07 05:40:38;;;;;;;20.92;15.30;;;12.70;99.90;;;;;;5074984;28;20036;-69
2022/06/07 05:43:04;;;;;;;19.25;14.57;;;12.80;99.90;;;;;;5073215;28;20064;-69
2022/06/07 05:45:33;;;;;;;19.48;14.60;;;12.80;99.90;;;;;;5073397;28;20093;-69
2022/06/07 05:47:58;;;;;;;21.60;13.63;;;12.80;99.90;;;;;;5071860;28;20129;-69
2022/06/07 05:50:25;;;;;;;19.75;13.05;;;12.80;99.90;;;;;;5073053;28;20072;-69
2022/06/07 05:52:51;;;;;;;17.20;11.10;;;12.80;99.90;;;;;;5072942;28;20048;-69
2022/06/07 05:55:17;;;;;;;18.08;11.63;;;12.70;99.90;;;;;;5072901;28;20036;-69
2022/06/07 05:57:49;;;;;;;18.58;12.88;;;12.70;99.90;;;;;;5073090;28;20039;-69
2022/06/07 06:00:19;;;;;;;17.15;12.02;;;12.70;99.90;;;;;;5072837;28;20043;-69
2022/06/07 06:02:44;;;;;;;17.92;12.30;;;12.70;99.90;;;;;;5072728;28;20472;-69
2022/06/07 06:05:10;;;;;;;17.45;11.50;;;12.70;99.90;;;;;;5072781;28;20113;-69
2022/06/07 06:10:19;;;;;;;16.23;11.95;;;12.60;99.90;;;;;;5072468;28;20047;-69
2022/06/07 06:10:22;;;;;;;18.92;11.48;;;12.60;99.90;;;;;;5073614;28;20044;-69
2022/06/07 06:12:48;;;;;;;14.38;9.75;;;12.50;99.90;;;;;;5072628;28;20413;-68
2022/06/07 06:15:14;;;;;;;13.48;9.20;;;12.50;99.90;;;;;;5072638;28;20050;-69
2022/06/07 06:17:40;;;;;;;13.63;8.13;;;12.40;99.90;;;;;;5072452;28;20076;-68
2022/06/07 06:20:06;;;;;;;12.05;8.65;;;12.40;99.90;;;;;;5072501;28;20044;-69
2022/06/07 06:22:34;;;;;;;14.23;8.02;;;12.40;99.90;;;;;;5072460;28;20052;-69
2022/06/07 06:25:00;;;;;;;12.95;7.97;;;12.40;99.90;;;;;;5072523;28;20469;-69
2022/06/07 06:27:26;;;;;;;15.43;8.80;;;12.30;99.90;;;;;;5072554;28;20150;-69
2022/06/07 06:29:51;;;;;;;18.58;9.45;;;12.40;99.90;;;;;;5055526;28;20079;-69
2022/06/07 06:32:17;;;;;;;14.85;9.77;;;12.40;99.90;;;;;;5072311;28;20047;-69
2022/06/07 06:34:42;;;;;;;14.40;8.35;;;12.40;99.90;;;;;;5072240;28;20036;-68
2022/06/07 06:37:08;;;;;;;14.43;8.02;;;12.30;99.90;;;;;;5072110;28;20082;-68
2022/06/07 06:39:33;;;;;;;16.13;8.85;;;12.30;99.90;;;;;;5055517;28;20044;-69
2022/06/07 06:41:59;;;;;;;15.88;9.63;;;12.30;99.90;;;;;;5055537;28;20040;-69
2022/06/07 06:44:25;;;;;;;14.77;8.18;;;12.40;99.90;;;;;;5072164;28;20044;-69
2022/06/07 06:46:50;;;;;;;13.15;6.93;;;12.30;99.90;;;;;;5072005;28;20040;-69
2022/06/07 06:49:16;;;;;;;14.30;7.03;;;12.30;99.90;;;;;;5072023;28;20047;-69
2022/06/07 06:51:42;;;;;;;9.43;6.18;;;12.30;99.90;;;;;;5072307;28;20048;-69
2022/06/07 06:54:12;;;;;;;15.20;6.68;;;12.40;99.90;;;;;;5072043;28;20043;-70
2022/06/07 06:56:38;;;;;;;13.57;7.07;;;12.40;99.90;;;;;;5072130;28;20079;-69
2022/06/07 06:59:03;;;;;;;13.57;7.05;;;12.40;99.90;;;;;;5071818;28;20094;-68
2022/06/07 07:01:32;;;;;;;13.88;7.20;;;12.50;99.90;;;;;;5071996;28;20569;-69
2022/06/07 07:04:04;;;;;;;14.48;7.20;;;12.50;99.90;;;;;;5071909;28;20052;-69
2022/06/07 07:06:29;;;;;;;16.35;7.90;;;12.50;99.90;;;;;;5071904;28;20075;-69
2022/06/07 07:08:55;;;;;;;13.18;8.07;;;12.60;99.90;;;;;;5071726;28;20076;-69
2022/06/07 07:11:35;;;;;;;14.52;8.10;;;12.60;99.90;;;;;;5072251;28;20056;-68
2022/06/07 07:14:02;;;;;;;17.05;7.78;;;12.60;99.90;;;;;;5073515;28;20068;-68
2022/06/07 07:16:31;;;;;;;13.40;8.15;;;12.70;99.90;;;;;;5072005;28;20051;-69
2022/06/07 07:18:58;;;;;;;14.27;9.25;;;12.70;99.90;;;;;;5071844;28;20044;-69
2022/06/07 07:21:33;;;;;;;22.50;9.60;;;12.70;99.90;;;;;;5071700;28;20492;-69
2022/06/07 07:24:00;;;;;;;16.40;8.70;;;12.80;99.90;;;;;;5071750;28;20090;-68
2022/06/07 07:26:28;;;;;;;11.77;7.72;;;12.80;99.90;;;;;;5071678;28;20458;-69
2022/06/07 07:28:53;;;;;;;13.50;6.53;;;12.90;99.90;;;;;;5071425;28;20044;-69
2022/06/07 07:31:22;;;;;;;12.25;5.05;;;12.90;99.90;;;;;;5071828;28;20033;-69
2022/06/07 07:33:48;;;;;;;9.80;5.90;;;12.90;99.90;;;;;;5054821;28;20037;-69
2022/06/07 07:36:14;;;;;;;12.90;5.20;;;12.90;99.90;;;;;;5072880;28;20111;-69
2022/06/07 07:38:40;;;;;;;9.40;4.43;;;12.90;99.90;;;;;;5072736;28;20504;-68
2022/06/07 07:41:20;;;;;;;11.88;4.63;;;12.90;99.90;;;;;;5072827;28;20079;-69
2022/06/07 07:43:47;;;;;;;8.77;4.63;;;12.80;99.90;;;;;;5071652;28;20043;-69
2022/06/07 07:46:14;;;;;;;12.60;4.63;;;12.80;99.90;;;;;;5071764;28;20044;-69
2022/06/07 07:48:40;;;;;;;11.43;4.20;;;12.80;99.90;;;;;;5072207;28;20084;-68
2022/06/07 07:51:08;;;;;;;13.35;4.75;;;12.80;99.90;;;;;;5071437;28;20042;-70
2022/06/07 07:53:34;;;;;;;11.40;4.72;;;12.80;99.90;;;;;;5071670;28;20040;-69
2022/06/07 07:56:00;;;;;;;10.32;4.57;;;12.80;99.90;;;;;;5071408;28;20044;-69
2022/06/07 07:58:25;;;;;;;10.90;4.63;;;12.80;99.90;;;;;;5071304;28;20106;-69
2022/06/07 08:00:51;;;;;;;12.50;4.38;;;12.80;99.90;;;;;;5071343;28;20054;-69
2022/06/07 08:03:19;;;;;;;8.02;4.15;;;12.80;99.90;;;;;;5071339;28;20044;-69
2022/06/07 08:05:45;;;;;;;12.30;4.40;;;12.80;99.90;;;;;;5071305;28;20503;-69
2022/06/07 08:08:11;;;;;;;9.30;3.88;;;12.80;99.90;;;;;;5071272;28;20044;-69
2022/06/07 08:10:38;;;;;;;10.80;4.40;;;12.70;99.90;;;;;;5071553;28;20068;-69
2022/06/07 08:13:05;;;;;;;7.28;3.95;;;12.70;99.90;;;;;;5074926;28;20400;-68
2022/06/07 08:15:33;;;;;;;11.50;4.25;;;12.70;99.90;;;;;;5074909;28;20032;-68
2022/06/07 08:18:02;;;;;;;12.48;4.30;;;12.80;99.90;;;;;;5075020;28;20040;-69
2022/06/07 08:20:29;;;;;;;15.80;4.55;;;12.80;99.90;;;;;;5074805;28;20468;-68
2022/06/07 08:22:55;;;;;;;12.02;4.43;;;12.80;99.90;;;;;;5058076;28;20495;-70
2022/06/07 08:25:21;;;;;;;12.00;4.80;;;12.80;99.90;;;;;;5075012;28;20056;-68
2022/06/07 08:27:47;;;;;;;13.32;4.93;;;12.80;99.90;;;;;;5074794;28;20041;-68
2022/06/07 08:30:14;;;;;;;10.32;5.28;;;12.80;99.90;;;;;;5057966;28;20476;-68
2022/06/07 08:32:40;;;;;;;12.73;5.25;;;12.80;99.90;;;;;;5074848;28;20040;-69
2022/06/07 08:37:50;;;;;;;12.32;5.65;;;12.90;99.90;;;;;;5074498;28;20041;-68
2022/06/07 08:40:27;;;;;;;15.45;5.53;;;12.80;99.90;;;;;;5074983;28;20086;-68
2022/06/07 08:42:56;;;;;;;10.40;5.70;;;12.90;99.90;;;;;;5074713;28;20040;-68
2022/06/07 08:45:42;;;;;;;14.77;5.30;;;13.00;99.90;;;;;;5074599;28;20102;-69
2022/06/07 08:48:21;;;;;;;12.40;6.07;;;13.00;99.90;;;;;;5074222;28;20040;-68
2022/06/07 08:51:13;;;;;;;10.60;6.63;;;13.00;99.90;;;;;;5074280;28;20447;-69
2022/06/07 08:53:42;;;;;;;14.52;6.32;;;13.00;99.90;;;;;;5074320;28;20119;-69
2022/06/07 08:56:36;;;;;;;15.10;6.75;;;13.00;99.90;;;;;;5074114;28;20465;-69
2022/06/07 08:59:17;;;;;;;15.27;6.65;;;13.00;99.90;;;;;;5065937;28;20059;-69
2022/06/07 09:01:53;;;;;;;11.00;6.03;;;13.00;99.90;;;;;;5074357;28;20059;-69
2022/06/07 09:04:26;;;;;;;17.63;6.90;;;13.00;99.90;;;;;;5074362;28;20178;-69
2022/06/07 09:06:58;;;;;;;15.98;6.63;;;13.00;99.90;;;;;;5074048;28;20059;-69
2022/06/07 09:12:09;;;;;;;16.40;6.35;;;13.00;99.90;;;;;;5073918;28;20055;-69
2022/06/07 09:12:18;;;;;;;15.65;6.00;;;13.00;99.90;;;;;;5074054;28;20048;-68
2022/06/07 09:14:49;;;;;;;13.65;5.93;;;13.00;99.90;;;;;;5074801;28;20063;-69
2022/06/07 09:17:19;;;;;;;12.05;6.72;;;13.00;99.90;;;;;;5073742;28;20102;-68
2022/06/07 09:19:47;;;;;;;12.18;6.13;;;13.00;99.90;;;;;;5074017;28;20037;-69
2022/06/07 09:22:36;;;;;;;15.30;6.43;;;13.00;99.90;;;;;;5073460;28;20048;-69
2022/06/07 09:25:06;;;;;;;10.20;5.88;;;13.10;99.90;;;;;;5073904;28;20044;-68
2022/06/07 09:27:33;;;;;;;12.85;5.70;;;13.00;99.90;;;;;;5073494;28;20044;-69
2022/06/07 09:30:06;;;;;;;10.10;5.05;;;13.10;99.90;;;;;;5056796;28;20043;-69
2022/06/07 09:32:36;;;;;;;11.02;5.30;;;13.10;99.90;;;;;;5073779;28;20040;-69
2022/06/07 09:35:22;;;;;;;12.32;4.68;;;13.00;99.90;;;;;;5073419;28;20072;-69
2022/06/07 09:37:53;;;;;;;6.07;2.80;;;13.10;99.90;;;;;;5073616;28;20036;-69
2022/06/07 09:40:23;;;;;;;5.57;2.22;;;13.10;99.90;;;;;;5073388;28;20044;-69
2022/06/07 09:42:53;;;;;;;5.53;2.28;;;13.10;99.90;;;;;;5073310;28;20502;-69
2022/06/07 09:45:27;;;;;;;7.38;2.03;;;13.10;99.90;;;;;;5073246;28;20497;-69
2022/06/07 09:47:53;;;;;;;6.20;1.50;;;13.20;99.90;;;;;;5074328;28;20087;-69
2022/06/07 09:50:34;;;;;;;4.65;1.58;;;13.20;99.90;;;;;;5073155;28;20072;-69
2022/06/07 09:53:09;;;;;;;8.73;2.20;;;13.20;99.90;;;;;;5073048;28;20043;-69
2022/06/07 09:56:04;;;;;;;5.97;1.52;;;13.30;99.90;;;;;;5073067;28;20068;-69
2022/06/07 09:59:00;;;;;;;6.25;1.60;;;13.30;99.90;;;;;;5073164;28;20084;-69
2022/06/07 10:01:37;;;;;;;5.05;1.70;;;13.30;99.90;;;;;;5072930;28;20060;-69
2022/06/07 10:04:06;;;;;;;3.30;1.15;;;13.20;99.90;;;;;;5072858;28;20496;-69
2022/06/07 10:06:39;;;;;;;4.82;1.73;;;13.20;99.90;;;;;;5074329;28;20095;-69
2022/06/07 10:09:31;;;;;;;5.85;1.45;;;13.20;99.90;;;;;;5072590;28;20051;-69
2022/06/07 10:12:42;;;;;;;5.65;2.05;;;13.20;99.90;;;;;;5072697;28;20090;-69
2022/06/07 10:15:32;;;;;;;5.28;2.28;;;13.20;99.90;;;;;;5072665;28;20407;-69
2022/06/07 10:18:12;;;;;;;4.78;1.83;;;13.30;99.90;;;;;;5072508;28;20097;-69
2022/06/07 10:20:57;;;;;;;5.47;2.17;;;13.30;99.90;;;;;;5072456;28;20524;-70
2022/06/07 10:23:38;;;;;;;3.63;1.92;;;13.30;99.90;;;;;;5072677;28;20067;-70
2022/06/07 10:26:07;;;;;;;4.85;1.30;;;13.30;99.90;;;;;;5072735;28;20558;-69
2022/06/07 10:29:03;;;;;;;5.15;1.08;;;13.30;99.90;;;;;;5072348;28;20463;-69
2022/06/07 10:31:41;;;;;;;2.53;0.90;;;13.40;99.90;;;;;;5072396;28;20128;-69
2022/06/07 10:34:26;;;;;;;2.47;1.10;;;13.30;99.90;;;;;;5071810;28;20116;-69
2022/06/07 10:37:19;;;;;;;5.40;1.23;;;13.30;99.90;;;;;;5072447;28;20098;-69
2022/06/07 10:40:12;;;;;;;2.70;0.95;;;13.20;99.90;;;;;;5072232;28;20059;-69
2022/06/07 10:42:49;;;;;;;3.05;1.10;;;13.10;99.90;;;;;;5072461;28;20198;-69
2022/06/07 10:45:26;;;;;;;3.95;1.20;;;13.10;99.90;;;;;;5072194;28;20041;-69
2022/06/07 10:48:28;;;;;;;2.92;0.98;;;13.10;99.90;;;;;;5072248;28;20040;-69
2022/06/07 10:54:20;;;;;;;3.83;1.20;;;13.20;99.90;;;;;;5072105;28;20131;-68
2022/06/07 10:56:55;;;;;;;3.15;0.90;;;13.30;99.90;;;;;;5071919;28;20090;-69
2022/06/07 10:59:22;;;;;;;2.85;0.80;;;13.30;99.90;;;;;;5072017;28;20082;-69
2022/06/07 11:01:53;;;;;;;1.65;0.73;;;13.40;99.90;;;;;;5071971;28;20044;-69
2022/06/07 11:10:29;;;;;;;2.97;0.85;;;13.50;99.90;;;;;;5071862;28;20524;-69
2022/06/07 11:13:35;;;;;;;3.10;1.02;;;13.40;99.90;;;;;;5072086;28;20044;-69
2022/06/07 11:16:29;;;;;;;6.78;0.90;;;13.50;99.90;;;;;;5063016;28;20049;-68
2022/06/07 11:18:59;;;;;;;3.63;1.00;;;13.40;99.90;;;;;;5071769;28;20079;-68
2022/06/07 11:21:34;;;;;;;5.72;1.25;;;13.40;99.90;;;;;;5073523;28;20500;-68
2022/06/07 11:24:02;;;;;;;6.05;1.30;;;13.40;99.90;;;;;;5071702;28;20489;-68
2022/06/07 11:26:37;;;;;;;9.13;1.50;;;13.40;99.90;;;;;;5071918;28;20041;-68
2022/06/07 11:29:08;;;;;;;7.53;1.50;;;13.40;99.90;;;;;;5071526;28;20052;-68
2022/06/07 11:31:35;;;;;;;5.95;1.48;;;13.40;99.90;;;;;;5071674;28;20050;-68
2022/06/07 11:34:12;;;;;;;6.13;1.40;;;13.30;99.90;;;;;;5054882;28;20485;-68
2022/06/07 11:36:43;;;;;;;6.93;1.70;;;13.30;99.90;;;;;;5071627;28;20070;-68
2022/06/07 11:39:31;;;;;;;8.00;1.70;;;13.20;99.90;;;;;;5071557;28;20412;-69
2022/06/07 11:42:17;;;;;;;8.95;1.40;;;13.20;99.90;;;;;;5054833;28;20048;-69
2022/06/07 11:44:42;;;;;;;7.38;1.60;;;13.20;99.90;;;;;;5071654;28;20044;-69
2022/06/07 11:47:11;;;;;;;5.78;1.42;;;13.20;99.90;;;;;;5075486;28;20044;-68
2022/06/07 11:49:46;;;;;;;8.02;1.50;;;13.10;99.90;;;;;;5075368;28;20037;-68
2022/06/07 11:52:11;;;;;;;10.85;2.13;;;13.10;99.90;;;;;;5058944;28;20044;-68
2022/06/07 11:54:46;;;;;;;6.57;1.90;;;13.10;99.90;;;;;;5075325;28;20036;-67
2022/06/07 11:57:37;;;;;;;7.65;1.80;;;13.10;99.90;;;;;;5075499;28;20047;-68
2022/06/07 12:00:18;;;;;;;10.63;2.10;;;13.00;99.90;;;;;;5075248;28;20052;-68
2022/06/07 12:02:56;;;;;;;9.52;1.90;;;13.00;99.90;;;;;;5075421;28;20511;-68
2022/06/07 12:05:49;;;;;;;5.82;1.73;;;13.00;99.90;;;;;;5075094;28;20405;-68
2022/06/07 12:08:32;;;;;;;5.65;1.60;;;13.00;99.90;;;;;;5075009;28;20556;-68
2022/06/07 12:11:28;;;;;;;6.30;1.85;;;13.00;99.90;;;;;;5075056;28;20130;-67
2022/06/07 12:14:10;;;;;;;4.50;1.33;;;13.10;99.90;;;;;;5058333;28;20090;-68
2022/06/07 12:16:59;;;;;;;6.80;1.85;;;13.10;99.90;;;;;;5074932;28;20090;-68
2022/06/07 12:19:33;;;;;;;4.47;1.55;;;13.20;99.90;;;;;;5075064;28;20037;-68
2022/06/07 12:22:05;;;;;;;6.40;1.95;;;13.10;99.90;;;;;;5058203;28;20050;-68
2022/06/07 12:24:42;;;;;;;3.97;1.38;;;13.20;99.90;;;;;;5074779;28;20037;-68
2022/06/07 12:27:34;;;;;;;6.78;1.83;;;13.20;99.90;;;;;;5058062;28;20045;-68
2022/06/07 12:30:19;;;;;;;5.88;1.77;;;13.30;99.90;;;;;;5070032;28;20060;-68
2022/06/07 12:32:45;;;;;;;7.82;2.20;;;13.30;99.90;;;;;;5074663;28;20412;-68
2022/06/07 12:35:16;;;;;;;4.32;1.65;;;13.30;99.90;;;;;;5075862;28;20485;-68
2022/06/07 12:37:46;;;;;;;7.95;2.40;;;13.40;99.90;;;;;;5074712;28;20044;-68
2022/06/07 12:40:29;;;;;;;8.73;2.13;;;13.40;99.90;;;;;;5074585;28;20041;-68
2022/06/07 12:42:55;;;;;;;13.02;2.20;;;13.40;99.90;;;;;;5074498;28;20132;-68
2022/06/07 12:45:34;;;;;;;8.07;2.55;;;13.40;99.90;;;;;;5074400;28;20063;-68
2022/06/07 12:48:08;;;;;;;13.10;2.60;;;13.50;99.90;;;;;;5074285;28;20501;-68
2022/06/07 12:50:38;;;;;;;7.90;2.50;;;13.50;99.90;;;;;;5074530;28;20098;-68
2022/06/07 12:53:05;;;;;;;8.52;2.80;;;13.50;99.90;;;;;;5074325;28;20086;-68
2022/06/07 12:55:36;;;;;;;9.75;3.00;;;13.50;99.90;;;;;;5074309;28;20036;-68
2022/06/07 12:58:06;;;;;;;11.02;3.00;;;13.50;99.90;;;;;;5073573;28;20106;-68
2022/06/07 13:00:41;;;;;;;9.90;3.10;;;13.60;99.90;;;;;;5074206;28;20040;-68
2022/06/07 13:03:17;;;;;;;9.98;3.42;;;13.70;99.90;;;;;;5074127;28;20072;-68
2022/06/07 13:05:43;;;;;;;11.65;2.65;;;13.70;99.90;;;;;;5074331;28;20083;-68
2022/06/07 13:08:17;;;;;;;9.20;2.70;;;13.80;99.90;;;;;;5073653;28;20531;-68
2022/06/07 13:10:44;;;;;;;10.20;3.00;;;13.80;99.90;;;;;;5073970;28;20086;-68
2022/06/07 13:13:25;;;;;;;7.70;2.70;;;13.90;99.90;;;;;;5073903;28;20079;-68